Time;durP1;ratioP1;P1;durP2;ratioP2;P2;SDS_P1;SDS_P2;PMS_P1;PMS_P2;Temp;Humidity;BMP_temperature;BMP_pressure;BME280_temperature;BME280_humidity;BME280_pressure;Samples;Min_cycle;Max_cycle;Signal;HPM_P1;HPM_P2
2022/07/25 00:00:02;;;;;;;1.10;1.00;;;;;;;20.74;100.00;95490.38;5135769;27;20487;-54
2022/07/25 00:02:31;;;;;;;0.63;0.50;;;;;;;21.54;100.00;95482.81;5135440;27;20441;-54
2022/07/25 00:05:01;;;;;;;1.50;1.50;;;;;;;21.51;100.00;95480.78;5135511;27;20431;-54
2022/07/25 00:07:31;;;;;;;1.53;1.43;;;;;;;20.48;100.00;95402.81;5135060;27;20466;-55
2022/07/25 00:10:01;;;;;;;1.23;1.13;;;;;;;21.29;100.00;95436.16;5134848;27;20940;-55
2022/07/25 00:12:30;;;;;;;0.50;0.50;;;;;;;22.06;100.00;95437.16;5135224;27;20469;-55
2022/07/25 00:14:58;;;;;;;1.00;0.70;;;;;;;22.14;100.00;95431.59;5135489;27;20461;-54
2022/07/25 00:17:27;;;;;;;1.13;1.03;;;;;;;21.69;100.00;95435.50;5134847;27;20518;-53
2022/07/25 00:19:55;;;;;;;1.20;1.20;;;;;;;20.31;100.00;95244.94;5135219;27;20495;-54
2022/07/25 00:22:24;;;;;;;0.70;0.70;;;;;;;22.17;100.00;95440.94;5135086;27;20958;-53
2022/07/25 00:24:52;;;;;;;0.63;0.63;;;;;;;21.20;100.00;95221.72;5135226;27;20458;-55
2022/07/25 00:27:22;;;;;;;0.60;0.50;;;;;;;22.55;100.00;95429.72;5134872;27;20466;-54
2022/07/25 00:29:50;;;;;;;0.73;0.73;;;;;;;22.91;100.00;95434.25;5134050;27;20461;-55
2022/07/25 00:32:19;;;;;;;0.50;0.40;;;;;;;22.92;100.00;95427.72;5134865;27;20431;-55
2022/07/25 00:34:47;;;;;;;1.10;0.50;;;;;;;22.63;100.00;95418.81;5134658;27;20437;-55
2022/07/25 00:37:16;;;;;;;0.60;0.40;;;;;;;22.12;100.00;95422.28;5135016;27;20454;-55
2022/07/25 00:39:45;;;;;;;1.03;0.80;;;;;;;22.45;100.00;95412.09;5134661;27;20460;-55
2022/07/25 00:42:15;;;;;;;1.03;0.93;;;;;;;21.82;100.00;95415.50;5134639;27;20454;-55
2022/07/25 00:44:44;;;;;;;0.50;0.40;;;;;;;21.96;100.00;95414.06;5133911;27;20435;-55
2022/07/25 00:47:13;;;;;;;0.50;0.47;;;;;;;22.55;100.00;95406.22;5134507;27;20458;-55
2022/07/25 00:49:42;;;;;;;1.13;0.63;;;;;;;22.67;100.00;95403.47;5134501;27;20434;-55
2022/07/25 00:52:11;;;;;;;1.03;0.53;;;;;;;22.95;100.00;95389.16;5134498;27;20502;-55
2022/07/25 00:54:39;;;;;;;0.50;0.30;;;;;;;22.92;100.00;95393.34;5134444;27;20796;-55
2022/07/25 00:57:08;;;;;;;0.50;0.30;;;;;;;23.00;100.00;95402.44;5134682;27;20451;-55
2022/07/25 00:59:37;;;;;;;0.80;0.70;;;;;;;23.15;100.00;95391.66;5134500;27;20427;-55
2022/07/25 01:02:07;;;;;;;0.50;0.43;;;;;;;23.09;100.00;95397.69;5134246;27;20429;-55
2022/07/25 01:04:36;;;;;;;0.50;0.40;;;;;;;22.90;100.00;95395.63;5134522;27;20434;-54
2022/07/25 01:07:05;;;;;;;0.60;0.47;;;;;;;22.88;100.00;95386.28;5134604;27;20506;-54
2022/07/25 01:09:34;;;;;;;0.60;0.50;;;;;;;22.95;100.00;95389.16;5133507;27;20556;-54
2022/07/25 01:12:02;;;;;;;2.03;0.63;;;;;;;22.99;100.00;95380.03;5134170;27;20506;-55
2022/07/25 01:14:32;;;;;;;0.50;0.30;;;;;;;23.04;100.00;95371.69;5134068;27;20431;-55
2022/07/25 01:17:00;;;;;;;0.40;0.30;;;;;;;23.14;100.00;95364.97;5134017;27;20502;-54
2022/07/25 01:19:30;;;;;;;0.40;0.20;;;;;;;23.17;100.00;95367.75;5134187;27;20843;-54
2022/07/25 01:22:00;;;;;;;0.50;0.30;;;;;;;23.14;100.00;95370.38;5133806;27;20470;-54
2022/07/25 01:24:29;;;;;;;0.53;0.33;;;;;;;22.98;100.00;95369.56;5133957;27;20518;-54
2022/07/25 01:26:58;;;;;;;0.50;0.43;;;;;;;23.03;100.00;95380.13;5133866;27;20423;-55
2022/07/25 01:29:26;;;;;;;1.17;1.07;;;;;;;22.17;100.00;95230.34;5133688;27;21153;-55
2022/07/25 01:31:54;;;;;;;0.40;0.30;;;;;;;23.13;100.00;95376.91;5133731;27;20968;-54
2022/07/25 01:34:23;;;;;;;0.70;0.50;;;;;;;22.95;100.00;95368.34;5133682;27;20431;-55
2022/07/25 01:36:51;;;;;;;1.77;0.47;;;;;;;22.26;100.00;95379.50;5133902;27;20454;-56
2022/07/25 01:39:21;;;;;;;0.70;0.40;;;;;;;21.65;100.00;95388.75;5133935;27;20454;-54
2022/07/25 01:41:49;;;;;;;1.60;0.60;;;;;;;22.18;100.00;95382.34;5133614;27;20506;-54
2022/07/25 01:44:18;;;;;;;0.73;0.40;;;;;;;21.70;100.00;95375.84;5133420;27;20431;-55
2022/07/25 01:46:46;;;;;;;0.50;0.40;;;;;;;21.75;100.00;95364.03;5133369;27;20450;-55
2022/07/25 01:49:15;;;;;;;0.50;0.40;;;;;;;22.08;100.00;95353.91;5133587;27;20534;-54
2022/07/25 01:51:43;;;;;;;0.60;0.30;;;;;;;21.78;100.00;95352.56;5133183;27;20426;-54
2022/07/25 01:54:12;;;;;;;0.87;0.87;;;;;;;21.53;100.00;95341.78;5133280;27;20526;-54
2022/07/25 01:56:45;;;;;;;0.80;0.77;;;;;;;21.74;100.00;95346.25;5133486;27;20442;-54
2022/07/25 01:59:15;;;;;;;2.00;1.70;;;;;;;21.48;100.00;95347.41;5132386;27;20433;-54
2022/07/25 02:01:44;;;;;;;0.60;0.50;;;;;;;21.78;100.00;95341.78;5133275;27;20423;-54
2022/07/25 02:04:12;;;;;;;1.00;0.80;;;;;;;21.53;100.00;95338.28;5132504;27;20423;-54
2022/07/25 02:06:41;;;;;;;0.70;0.70;;;;;;;20.78;100.00;95345.81;5133065;27;20913;-54
2022/07/25 02:09:10;;;;;;;1.13;0.90;;;;;;;20.45;100.00;95334.25;5133271;27;20565;-55
2022/07/25 02:11:38;;;;;;;1.07;1.03;;;;;;;20.39;100.00;95343.63;5133121;27;20514;-55
2022/07/25 02:14:08;;;;;;;0.87;0.87;;;;;;;20.42;100.00;95350.25;5132899;27;20466;-55
2022/07/25 02:16:37;;;;;;;1.40;1.30;;;;;;;20.30;100.00;95358.28;5132733;27;20534;-54
2022/07/25 02:19:05;;;;;;;0.53;0.50;;;;;;;20.59;100.00;95360.91;5133191;27;20426;-54
2022/07/25 02:21:34;;;;;;;1.43;0.50;;;;;;;21.45;100.00;95360.78;5133175;27;20846;-54
2022/07/25 02:24:03;;;;;;;1.00;1.00;;;;;;;21.88;100.00;95341.34;5133084;27;20434;-54
2022/07/25 02:26:32;;;;;;;0.60;0.47;;;;;;;21.85;100.00;95352.78;5132699;27;20852;-54
2022/07/25 02:29:00;;;;;;;0.77;0.77;;;;;;;22.24;100.00;95352.03;5132827;27;20462;-55
2022/07/25 02:31:30;;;;;;;0.50;0.40;;;;;;;22.06;100.00;95337.28;5132849;27;20553;-55
2022/07/25 02:33:58;;;;;;;0.50;0.40;;;;;;;21.56;100.00;95258.63;5131794;27;20422;-54
2022/07/25 02:36:27;;;;;;;0.57;0.40;;;;;;;21.82;100.00;95369.66;5133058;27;20446;-55
2022/07/25 02:38:55;;;;;;;0.50;0.30;;;;;;;21.77;100.00;95364.47;5132591;27;20505;-55
2022/07/25 02:41:23;;;;;;;0.63;0.63;;;;;;;21.82;100.00;95358.84;5132280;28;20434;-55
2022/07/25 02:43:52;;;;;;;1.10;0.63;;;;;;;21.84;100.00;95362.00;5132642;28;20465;-55
2022/07/25 02:46:21;;;;;;;0.50;0.30;;;;;;;22.19;100.00;95363.09;5132703;28;20502;-55
2022/07/25 02:48:51;;;;;;;0.60;0.40;;;;;;;22.02;100.00;95366.06;5132397;28;20474;-55
2022/07/25 02:51:19;;;;;;;2.40;0.90;;;;;;;21.80;100.00;95355.72;5132474;27;20418;-55
2022/07/25 02:53:48;;;;;;;0.70;0.50;;;;;;;21.38;100.00;95366.72;5136333;27;20838;-53
2022/07/25 02:56:26;;;;;;;0.60;0.60;;;;;;;21.75;100.00;95372.13;5136649;27;20430;-53
2022/07/25 02:58:57;;;;;;;0.50;0.33;;;;;;;21.83;100.00;95326.13;5136698;27;20434;-55
2022/07/25 03:01:25;;;;;;;0.50;0.40;;;;;;;21.98;100.00;95367.88;5136738;27;20454;-55
2022/07/25 03:03:56;;;;;;;0.77;0.70;;;;;;;21.97;100.00;95366.28;5136979;27;20441;-55
2022/07/25 03:06:24;;;;;;;0.60;0.50;;;;;;;21.64;100.00;95282.78;5136540;27;20513;-55
2022/07/25 03:08:53;;;;;;;0.40;0.30;;;;;;;21.97;100.00;95368.97;5136360;27;20466;-55
2022/07/25 03:11:21;;;;;;;0.80;0.50;;;;;;;22.23;100.00;95369.41;5136772;27;20434;-56
2022/07/25 03:13:49;;;;;;;0.50;0.50;;;;;;;22.24;100.00;95372.88;5136421;27;20430;-54
2022/07/25 03:16:18;;;;;;;0.57;0.57;;;;;;;22.27;100.00;95374.88;5136136;27;20418;-55
2022/07/25 03:18:46;;;;;;;0.50;0.30;;;;;;;22.21;100.00;95379.75;5136124;27;20480;-55
2022/07/25 03:21:16;;;;;;;0.60;0.30;;;;;;;22.14;100.00;95368.72;5136648;27;20457;-59
2022/07/25 03:23:45;;;;;;;0.50;0.40;;;;;;;22.13;100.00;95369.88;5136566;27;20879;-58
2022/07/25 03:26:20;;;;;;;0.40;0.30;;;;;;;22.21;100.00;95368.94;5136512;27;20407;-59
2022/07/25 03:28:49;;;;;;;0.50;0.40;;;;;;;22.22;100.00;95373.22;5136328;27;20479;-59
2022/07/25 03:31:18;;;;;;;0.60;0.60;;;;;;;22.23;100.00;95363.19;5136390;27;20500;-60
2022/07/25 03:33:47;;;;;;;0.50;0.30;;;;;;;22.18;100.00;95366.13;5135907;27;20436;-60
2022/07/25 03:36:19;;;;;;;0.50;0.30;;;;;;;22.27;100.00;95364.88;5135681;27;20457;-60
2022/07/25 03:38:47;;;;;;;0.60;0.30;;;;;;;22.48;100.00;95362.00;5135603;27;20487;-60
2022/07/25 03:41:16;;;;;;;0.77;0.30;;;;;;;22.63;100.00;95372.88;5135554;27;20987;-60
2022/07/25 03:43:46;;;;;;;0.80;0.53;;;;;;;22.68;100.00;95369.16;5135771;27;20514;-60
2022/07/25 03:46:15;;;;;;;0.50;0.40;;;;;;;22.73;100.00;95367.00;5135693;27;20426;-60
2022/07/25 03:48:46;;;;;;;1.10;0.63;;;;;;;21.98;100.00;95357.88;5134926;27;20928;-60
2022/07/25 03:51:19;;;;;;;0.67;0.67;;;;;;;21.42;100.00;95361.44;5135324;27;20441;-60
2022/07/25 03:54:05;;;;;;;0.60;0.40;;;;;;;20.97;100.00;95345.31;5135028;27;20848;-60
2022/07/25 03:56:38;;;;;;;1.30;0.80;;;;;;;20.99;100.00;95353.84;5135202;27;20488;-58
2022/07/25 03:59:12;;;;;;;0.60;0.50;;;;;;;21.34;100.00;95355.03;5135254;27;20437;-56
2022/07/25 04:01:41;;;;;;;0.40;0.30;;;;;;;21.93;100.00;95363.50;5135079;27;20521;-56
2022/07/25 04:04:10;;;;;;;0.50;0.33;;;;;;;21.49;100.00;95241.09;5134969;27;20466;-56
2022/07/25 04:06:40;;;;;;;1.57;1.27;;;;;;;21.67;100.00;95274.00;5135043;27;20470;-56
2022/07/25 04:09:10;;;;;;;0.50;0.50;;;;;;;22.16;100.00;95355.69;5134991;27;20546;-55
2022/07/25 04:11:39;;;;;;;0.70;0.70;;;;;;;22.04;100.00;95350.28;5134900;27;20525;-55
2022/07/25 04:14:08;;;;;;;6.20;2.33;;;;;;;21.37;100.00;95357.06;5135147;27;20517;-55
2022/07/25 04:16:37;;;;;;;0.60;0.60;;;;;;;21.96;100.00;95357.41;5134961;27;20486;-55
2022/07/25 04:19:07;;;;;;;0.47;0.33;;;;;;;22.26;100.00;95359.81;5135032;27;20430;-55
2022/07/25 04:21:35;;;;;;;0.60;0.60;;;;;;;21.97;100.00;95339.28;5134655;27;20427;-56
2022/07/25 04:24:06;;;;;;;0.70;0.70;;;;;;;22.20;100.00;95359.28;5134638;27;20501;-56
2022/07/25 04:26:35;;;;;;;0.70;0.70;;;;;;;21.93;100.00;95370.81;5134661;27;20423;-56
2022/07/25 04:29:03;;;;;;;0.60;0.60;;;;;;;22.10;100.00;95367.84;5134352;27;20469;-56
2022/07/25 04:31:32;;;;;;;1.23;1.03;;;;;;;22.43;100.00;95371.13;5134819;27;20483;-56
2022/07/25 04:34:00;;;;;;;0.50;0.50;;;;;;;22.71;100.00;95373.88;5134869;27;20430;-56
2022/07/25 04:36:28;;;;;;;2.23;0.70;;;;;;;22.03;100.00;95368.44;5134705;27;20446;-56
2022/07/25 04:38:57;;;;;;;1.27;0.80;;;;;;;21.80;100.00;95367.28;5134426;27;20967;-56
2022/07/25 04:41:27;;;;;;;2.10;0.63;;;;;;;21.93;100.00;95362.69;5134352;27;21034;-57
2022/07/25 04:43:55;;;;;;;0.83;0.83;;;;;;;21.93;100.00;95371.59;5134340;27;20426;-57
2022/07/25 04:46:24;;;;;;;2.20;0.50;;;;;;;22.15;100.00;95367.59;5134325;27;20454;-57
2022/07/25 04:48:52;;;;;;;0.40;0.30;;;;;;;22.32;100.00;95367.31;5134417;27;20429;-57
2022/07/25 04:51:21;;;;;;;0.50;0.50;;;;;;;22.45;100.00;95358.06;5134494;27;20534;-57
2022/07/25 04:53:49;;;;;;;0.50;0.40;;;;;;;22.40;100.00;95369.09;5133954;27;20465;-57
2022/07/25 04:56:18;;;;;;;0.70;0.60;;;;;;;22.32;100.00;95361.13;5134146;27;20514;-58
2022/07/25 04:58:48;;;;;;;0.83;0.53;;;;;;;22.40;100.00;95362.91;5133723;27;20526;-58
2022/07/25 05:01:16;;;;;;;0.50;0.33;;;;;;;23.16;100.00;95357.28;5134063;27;20423;-58
2022/07/25 05:03:45;;;;;;;0.60;0.40;;;;;;;23.22;100.00;95362.13;5133340;27;20434;-57
2022/07/25 05:06:17;;;;;;;1.37;1.27;;;;;;;23.25;100.00;95361.41;5133992;27;20908;-58
2022/07/25 05:08:46;;;;;;;0.50;0.40;;;;;;;23.57;100.00;95362.22;5133496;27;20473;-58
2022/07/25 05:11:14;;;;;;;0.60;0.60;;;;;;;24.10;100.00;95362.69;5133751;27;20485;-57
2022/07/25 05:13:43;;;;;;;2.67;1.60;;;;;;;23.41;100.00;95369.56;5133771;27;20462;-57
2022/07/25 05:16:13;;;;;;;1.23;1.13;;;;;;;23.38;100.00;95374.91;5133105;27;20422;-57
2022/07/25 05:18:41;;;;;;;1.10;1.00;;;;;;;23.62;100.00;95380.91;5133977;27;20435;-57
2022/07/25 05:21:11;;;;;;;1.03;0.80;;;;;;;24.00;100.00;95367.50;5133578;27;20479;-57
2022/07/25 05:23:39;;;;;;;1.30;0.67;;;;;;;24.10;100.00;95352.66;5133991;27;20461;-57
2022/07/25 05:26:08;;;;;;;0.50;0.40;;;;;;;24.19;100.00;95344.31;5133529;27;20781;-57
2022/07/25 05:28:36;;;;;;;3.60;1.63;;;;;;;24.30;100.00;95369.72;5133672;27;20458;-57
2022/07/25 05:31:05;;;;;;;0.77;0.77;;;;;;;24.08;100.00;95362.25;5133377;27;20562;-57
2022/07/25 05:33:35;;;;;;;0.60;0.50;;;;;;;24.06;100.00;95361.81;5133703;27;20429;-56
2022/07/25 05:36:04;;;;;;;0.60;0.53;;;;;;;23.71;100.00;95350.94;5134237;27;20452;-57
2022/07/25 05:38:33;;;;;;;0.80;0.70;;;;;;;23.77;100.00;95354.97;5133296;27;20479;-57
2022/07/25 05:41:01;;;;;;;0.80;0.80;;;;;;;23.41;100.00;95328.97;5133140;27;20467;-57
2022/07/25 05:43:30;;;;;;;1.20;1.10;;;;;;;23.61;100.00;95302.78;5133400;27;20434;-57
2022/07/25 05:46:02;;;;;;;1.10;0.90;;;;;;;23.58;100.00;95357.63;5133160;27;20950;-56
2022/07/25 05:48:31;;;;;;;0.93;0.80;;;;;;;24.11;100.00;95364.28;5132666;27;20466;-57
2022/07/25 05:51:01;;;;;;;0.53;0.50;;;;;;;23.72;100.00;95356.03;5132749;27;20466;-57
2022/07/25 05:53:30;;;;;;;1.73;1.63;;;;;;;22.59;100.00;95193.66;5132846;27;20463;-57
2022/07/25 05:55:58;;;;;;;1.67;0.50;;;;;;;24.06;100.00;95354.44;5132888;27;20454;-56
2022/07/25 05:58:27;;;;;;;4.30;1.93;;;;;;;24.05;100.00;95330.44;5133205;27;20430;-56
2022/07/25 06:00:58;;;;;;;3.70;3.40;;;;;;;24.23;100.00;95337.06;5133155;27;20466;-56
2022/07/25 06:03:26;;;;;;;0.50;0.43;;;;;;;24.78;100.00;95339.34;5133378;27;20455;-56
2022/07/25 06:05:56;;;;;;;1.20;1.20;;;;;;;24.69;100.00;95264.81;5132650;27;20506;-56
2022/07/25 06:08:27;;;;;;;0.80;0.77;;;;;;;24.80;100.00;95328.94;5132421;27;20525;-56
2022/07/25 06:10:56;;;;;;;0.63;0.63;;;;;;;24.78;100.00;95338.56;5132501;27;20999;-56
2022/07/25 06:13:24;;;;;;;0.70;0.70;;;;;;;25.06;100.00;95334.47;5132153;27;20465;-56
2022/07/25 06:15:55;;;;;;;0.60;0.60;;;;;;;25.30;100.00;95337.97;5132549;27;20430;-56
2022/07/25 06:18:24;;;;;;;0.83;0.80;;;;;;;25.35;100.00;95338.44;5132354;27;20469;-56
2022/07/25 06:20:53;;;;;;;0.50;0.40;;;;;;;25.55;100.00;95307.38;5132843;27;20533;-56
2022/07/25 06:23:21;;;;;;;1.10;1.10;;;;;;;25.79;100.00;95320.56;5132223;27;20526;-56
2022/07/25 06:25:56;;;;;;;1.17;1.07;;;;;;;25.81;100.00;95326.41;5131926;27;20452;-56
2022/07/25 06:28:24;;;;;;;1.47;0.67;;;;;;;25.73;100.00;95324.72;5131712;27;20469;-55
2022/07/25 06:30:52;;;;;;;2.23;0.90;;;;;;;25.31;100.00;95312.41;5132033;27;20508;-55
2022/07/25 06:33:21;;;;;;;0.77;0.60;;;;;;;25.75;100.00;95327.09;5132457;27;20533;-55
2022/07/25 06:35:49;;;;;;;1.53;1.43;;;;;;;25.66;100.00;95299.41;5132055;27;20485;-56
2022/07/25 06:38:18;;;;;;;1.33;1.27;;;;;;;25.27;100.00;95327.84;5132587;27;20477;-56
2022/07/25 06:40:46;;;;;;;1.30;1.30;;;;;;;24.83;100.00;95282.13;5132592;27;20458;-56
2022/07/25 06:43:16;;;;;;;2.20;2.10;;;;;;;24.74;100.00;95319.50;5132133;28;20920;-56
2022/07/25 06:45:46;;;;;;;1.10;1.00;;;;;;;24.33;100.00;95296.66;5132147;28;20947;-56
2022/07/25 06:48:14;;;;;;;1.10;0.93;;;;;;;24.97;100.00;95320.34;5132047;28;20475;-55
2022/07/25 06:50:43;;;;;;;1.70;1.27;;;;;;;24.55;100.00;95282.38;5132053;28;20886;-55
2022/07/25 06:53:12;;;;;;;0.93;0.93;;;;;;;24.64;100.00;95314.69;5132081;28;20426;-55
2022/07/25 06:55:40;;;;;;;1.00;1.00;;;;;;;24.44;100.00;95316.59;5132531;28;20853;-55
2022/07/25 06:58:09;;;;;;;1.50;1.40;;;;;;;24.84;100.00;95281.00;5132012;28;20438;-56
2022/07/25 07:00:39;;;;;;;1.43;1.17;;;;;;;24.95;100.00;95267.59;5132027;28;20470;-56
2022/07/25 07:03:08;;;;;;;1.07;0.67;;;;;;;25.07;100.00;95262.03;5132053;28;20427;-56
2022/07/25 07:05:36;;;;;;;1.20;1.20;;;;;;;25.21;100.00;95311.06;5132400;28;20542;-56
2022/07/25 07:08:06;;;;;;;1.90;1.80;;;;;;;25.10;100.00;95319.03;5132020;28;20517;-56
2022/07/25 07:10:34;;;;;;;1.00;1.00;;;;;;;24.73;100.00;95255.59;5132041;28;20512;-56
2022/07/25 07:13:04;;;;;;;2.80;1.53;;;;;;;24.42;100.00;95228.69;5131969;28;20458;-57
2022/07/25 07:15:35;;;;;;;5.33;1.10;;;;;;;25.20;100.00;95314.91;5132243;28;20419;-57
2022/07/25 07:18:06;;;;;;;1.80;1.43;;;;;;;25.59;100.00;95318.31;5131694;28;20466;-56
2022/07/25 07:20:35;;;;;;;1.30;1.20;;;;;;;25.93;100.00;95314.56;5132035;28;20488;-56
2022/07/25 07:23:03;;;;;;;1.67;1.57;;;;;;;26.50;100.00;95316.09;5131730;28;20414;-57
2022/07/25 07:25:33;;;;;;;2.30;1.33;;;;;;;26.24;100.00;95273.47;5131906;28;20442;-57
2022/07/25 07:28:02;;;;;;;0.60;0.60;;;;;;;26.88;100.00;95312.28;5132023;28;20947;-57
2022/07/25 07:30:31;;;;;;;1.43;1.33;;;;;;;26.66;100.00;95228.91;5131855;28;20513;-56
2022/07/25 07:33:21;;;;;;;0.70;0.70;;;;;;;27.42;100.00;95315.19;5131865;28;20445;-56
2022/07/25 07:35:49;;;;;;;1.23;1.07;;;;;;;27.76;100.00;95315.00;5131690;28;20531;-56
2022/07/25 07:38:18;;;;;;;2.07;0.80;;;;;;;27.95;100.00;95298.44;5133146;27;20790;-56
2022/07/25 07:40:46;;;;;;;0.70;0.63;;;;;;;28.55;99.40;95288.63;5135614;27;20430;-56
2022/07/25 07:43:14;;;;;;;1.43;0.80;;;;;;;28.41;100.00;95304.94;5136054;27;20450;-56
2022/07/25 07:45:43;;;;;;;0.67;0.67;;;;;;;28.33;100.00;95249.56;5135395;27;20491;-56
2022/07/25 07:48:12;;;;;;;1.60;1.50;;;;;;;28.73;98.72;95300.41;5135295;27;20458;-56
2022/07/25 07:50:44;;;;;;;1.07;1.07;;;;;;;28.65;100.00;95300.75;5135624;27;20427;-56
2022/07/25 07:53:13;;;;;;;1.70;0.87;;;;;;;29.66;95.75;95298.56;5135792;27;20513;-56
2022/07/25 07:55:43;;;;;;;1.13;1.03;;;;;;;29.49;93.60;95303.66;5135869;27;20473;-56
2022/07/25 07:58:14;;;;;;;2.23;2.10;;;;;;;29.40;86.62;95299.72;5135592;27;20430;-56
2022/07/25 08:00:43;;;;;;;1.20;1.10;;;;;;;30.06;82.73;95296.19;5135435;27;20423;-56
2022/07/25 08:03:12;;;;;;;1.97;1.10;;;;;;;30.32;78.18;95294.16;5135558;27;20434;-57
2022/07/25 08:05:42;;;;;;;1.13;1.13;;;;;;;30.54;77.19;95299.19;5135223;27;20469;-57
2022/07/25 08:08:14;;;;;;;1.90;1.70;;;;;;;29.65;77.02;95305.22;5135516;27;20558;-57
2022/07/25 08:10:44;;;;;;;6.73;2.10;;;;;;;30.04;75.64;95298.53;5135031;27;20956;-56
2022/07/25 08:13:14;;;;;;;1.07;1.00;;;;;;;30.01;75.23;95272.00;5135138;27;20514;-57
2022/07/25 08:15:43;;;;;;;1.17;1.07;;;;;;;30.26;75.13;95287.56;5135017;27;20426;-56
2022/07/25 08:18:12;;;;;;;1.70;1.23;;;;;;;30.23;74.87;95291.09;5134944;27;20473;-56
2022/07/25 08:20:45;;;;;;;1.40;1.23;;;;;;;30.39;80.47;95283.22;5134966;27;20513;-55
2022/07/25 08:23:15;;;;;;;0.80;0.80;;;;;;;30.96;75.81;95278.28;5134819;27;20513;-55
2022/07/25 08:25:45;;;;;;;0.77;0.77;;;;;;;31.08;70.15;95281.34;5135159;27;20592;-56
2022/07/25 08:28:14;;;;;;;1.60;1.50;;;;;;;30.90;77.26;95275.19;5134929;27;20524;-55
2022/07/25 08:30:43;;;;;;;1.33;1.23;;;;;;;31.18;67.54;95269.53;5134707;27;20462;-56
2022/07/25 08:33:14;;;;;;;0.67;0.67;;;;;;;31.66;66.11;95260.56;5135219;27;20480;-57
2022/07/25 08:35:46;;;;;;;0.87;0.83;;;;;;;32.83;64.04;95273.78;5134784;27;20433;-56
2022/07/25 08:38:17;;;;;;;1.47;0.63;;;;;;;32.94;63.34;95274.41;5134812;27;20906;-55
2022/07/25 08:40:45;;;;;;;4.20;1.50;;;;;;;32.50;59.21;95273.38;5134454;27;20467;-54
2022/07/25 08:43:15;;;;;;;1.90;1.80;;;;;;;33.03;66.59;95260.94;5134962;27;20453;-54
2022/07/25 08:45:46;;;;;;;1.17;1.07;;;;;;;32.31;59.27;95221.88;5134660;27;20481;-54
2022/07/25 08:48:17;;;;;;;1.07;1.07;;;;;;;32.91;59.56;95256.78;5134650;27;20438;-60
2022/07/25 08:50:46;;;;;;;2.40;2.23;;;;;;;32.14;60.71;95263.22;5133512;27;20461;-60
2022/07/25 08:53:19;;;;;;;2.10;2.00;;;;;;;32.48;59.13;95256.56;5133795;27;20463;-59
2022/07/25 08:56:05;;;;;;;0.73;0.73;;;;;;;33.58;59.43;95244.78;5134423;27;20756;-60
2022/07/25 08:58:48;;;;;;;2.43;2.33;;;;;;;33.01;58.57;95250.38;5134391;27;20436;-60
2022/07/25 09:01:17;;;;;;;1.67;1.57;;;;;;;32.49;58.45;95249.09;5134660;27;20456;-60
2022/07/25 09:03:45;;;;;;;1.20;1.10;;;;;;;32.85;61.28;95241.97;5134357;27;20494;-60
2022/07/25 09:06:16;;;;;;;0.80;0.80;;;;;;;33.61;60.41;95237.69;5134507;27;20455;-60
2022/07/25 09:08:53;;;;;;;1.33;1.27;;;;;;;33.04;61.52;95238.56;5134185;27;20469;-59
2022/07/25 09:11:30;;;;;;;1.23;1.13;;;;;;;33.42;61.86;95241.13;5134717;27;20430;-59
2022/07/25 09:14:01;;;;;;;1.53;1.43;;;;;;;32.75;58.01;95239.38;5134194;27;20850;-59
2022/07/25 09:16:33;;;;;;;1.77;1.40;;;;;;;32.58;62.63;95217.25;5133952;27;20451;-59
2022/07/25 09:19:13;;;;;;;1.40;1.30;;;;;;;32.11;62.72;95231.91;5133987;27;20469;-59
2022/07/25 09:21:43;;;;;;;1.77;1.67;;;;;;;32.61;63.17;95230.13;5134477;27;20434;-59
2022/07/25 09:24:17;;;;;;;1.70;1.60;;;;;;;32.11;64.14;95226.44;5133795;27;20939;-59
2022/07/25 09:26:48;;;;;;;1.67;1.57;;;;;;;32.60;61.90;95214.88;5134048;27;20858;-59
2022/07/25 09:29:21;;;;;;;2.30;1.43;;;;;;;33.28;58.40;95220.16;5133746;27;20475;-59
2022/07/25 09:31:51;;;;;;;0.80;0.80;;;;;;;33.50;57.44;95220.56;5133424;27;20930;-59
2022/07/25 09:34:36;;;;;;;1.70;1.60;;;;;;;33.17;54.59;95222.28;5133686;27;20477;-59
2022/07/25 09:37:06;;;;;;;1.10;1.03;;;;;;;33.83;54.23;95216.84;5133672;27;20926;-58
2022/07/25 09:39:41;;;;;;;2.37;1.73;;;;;;;33.69;61.96;95215.16;5133437;27;20523;-58
2022/07/25 09:42:19;;;;;;;2.10;1.60;;;;;;;34.04;52.11;95212.94;5133101;27;20511;-58
2022/07/25 09:45:05;;;;;;;1.03;1.03;;;;;;;34.99;50.93;95216.47;5133090;27;20469;-58
2022/07/25 09:47:37;;;;;;;1.00;1.00;;;;;;;34.70;47.43;95213.56;5133419;27;20477;-58
2022/07/25 09:50:07;;;;;;;0.80;0.80;;;;;;;34.86;48.50;95188.84;5133274;27;20483;-58
2022/07/25 09:52:36;;;;;;;0.80;0.63;;;;;;;35.89;46.57;95208.34;5132766;27;20252;-57
2022/07/25 09:55:08;;;;;;;0.60;0.50;;;;;;;36.12;45.00;95211.69;5133238;27;20490;-58
2022/07/25 09:57:37;;;;;;;1.53;0.70;;;;;;;35.87;46.38;95205.25;5133219;27;20207;-58
2022/07/25 10:00:08;;;;;;;1.17;0.90;;;;;;;35.40;47.50;95204.88;5133150;27;20180;-58
2022/07/25 10:02:46;;;;;;;0.80;0.77;;;;;;;36.03;44.81;95197.72;5132656;27;20192;-58
2022/07/25 10:05:19;;;;;;;2.33;1.03;;;;;;;35.67;50.62;95194.38;5132942;27;20192;-58
2022/07/25 10:07:50;;;;;;;0.83;0.83;;;;;;;35.84;48.28;95190.34;5133085;27;20271;-58
2022/07/25 10:10:26;;;;;;;1.37;0.70;;;;;;;36.01;48.64;95122.13;5132958;27;20227;-58
2022/07/25 10:13:03;;;;;;;2.27;2.17;;;;;;;35.74;47.47;95100.41;5131867;27;20343;-58
2022/07/25 10:15:46;;;;;;;1.97;1.87;;;;;;;35.53;50.71;95178.97;5132044;27;20278;-58
2022/07/25 10:18:15;;;;;;;1.15;1.15;;;;;;;36.11;48.60;95179.78;5132071;27;20299;-58
2022/07/25 10:20:45;;;;;;;1.05;1.05;;;;;;;35.12;48.32;95134.69;5131831;27;20184;-58
2022/07/25 10:23:21;;;;;;;1.00;1.00;;;;;;;36.09;45.13;95168.41;5132360;27;20231;-59
2022/07/25 10:26:08;;;;;;;1.20;1.10;;;;;;;35.62;46.65;95168.06;5132401;27;20270;-58
2022/07/25 10:28:39;;;;;;;1.07;0.97;;;;;;;35.71;49.43;95167.47;5132316;27;20219;-58
2022/07/25 10:31:23;;;;;;;1.17;1.08;;;;;;;36.31;48.00;95130.69;5132146;27;20241;-59
2022/07/25 10:33:54;;;;;;;1.58;1.48;;;;;;;36.33;48.87;95157.09;5132362;27;20207;-58
2022/07/25 10:36:24;;;;;;;0.97;0.93;;;;;;;36.75;45.61;95159.34;5132395;27;20188;-58
2022/07/25 10:38:57;;;;;;;0.80;0.80;;;;;;;37.15;43.71;95167.19;5132570;27;20214;-58
2022/07/25 10:41:28;;;;;;;1.20;1.20;;;;;;;36.28;47.50;95152.88;5132354;27;20223;-58
2022/07/25 10:44:00;;;;;;;0.88;0.88;;;;;;;36.06;42.64;95141.69;5132437;28;20276;-58
2022/07/25 10:46:31;;;;;;;1.38;1.17;;;;;;;36.48;44.58;95142.47;5132111;28;20618;-58
2022/07/25 10:49:02;;;;;;;1.52;1.42;;;;;;;37.21;41.19;95127.50;5132291;28;20316;-58
2022/07/25 10:51:33;;;;;;;6.15;1.25;;;;;;;36.70;41.02;95137.03;5131849;28;20252;-59
2022/07/25 10:54:15;;;;;;;0.88;0.88;;;;;;;37.03;42.53;95126.53;5131075;28;20295;-58
2022/07/25 10:56:57;;;;;;;0.95;0.82;;;;;;;37.03;42.83;95126.53;5131115;28;20264;-58
2022/07/25 10:59:27;;;;;;;0.80;0.80;;;;;;;36.78;41.13;95128.09;5132357;28;20268;-58
2022/07/25 11:01:58;;;;;;;2.03;1.33;;;;;;;36.18;41.77;95115.34;5131860;28;20279;-62
2022/07/25 11:04:26;;;;;;;0.95;0.95;;;;;;;35.67;43.63;95117.91;5132027;28;20185;-57
2022/07/25 11:06:55;;;;;;;0.90;0.90;;;;;;;36.00;44.62;95124.09;5131748;28;20189;-58
2022/07/25 11:09:25;;;;;;;1.33;1.25;;;;;;;37.15;41.57;95109.16;5132006;28;20188;-58
2022/07/25 11:11:58;;;;;;;1.50;1.40;;;;;;;36.45;40.62;95115.69;5132035;28;20181;-58
2022/07/25 11:14:31;;;;;;;1.67;1.58;;;;;;;35.51;42.36;95111.66;5135141;27;20280;-59
2022/07/25 11:17:13;;;;;;;1.20;1.20;;;;;;;36.40;44.26;95102.44;5135716;27;20280;-59
2022/07/25 11:19:42;;;;;;;1.33;1.33;;;;;;;35.96;39.11;95104.09;5136050;27;20227;-59
2022/07/25 11:22:12;;;;;;;1.75;1.65;;;;;;;36.00;39.78;95095.75;5136325;27;20591;-58
2022/07/25 11:24:43;;;;;;;4.90;1.58;;;;;;;35.61;41.85;95094.84;5135853;27;20628;-59
2022/07/25 11:27:20;;;;;;;1.52;1.42;;;;;;;36.31;44.14;95094.03;5135841;27;20651;-58
2022/07/25 11:29:49;;;;;;;0.65;0.57;;;;;;;37.02;43.42;95084.31;5135750;27;20219;-58
2022/07/25 11:32:17;;;;;;;0.80;0.80;;;;;;;36.87;39.08;95089.50;5136006;27;20267;-59
2022/07/25 11:34:49;;;;;;;1.83;0.60;;;;;;;38.13;36.42;95077.22;5134928;27;20212;-57
2022/07/25 11:37:18;;;;;;;2.00;0.80;;;;;;;38.32;34.12;95069.81;5134785;27;20275;-57
2022/07/25 11:39:47;;;;;;;1.95;0.73;;;;;;;37.89;35.42;95063.13;5135557;27;20216;-57